sensor_id;sensor_type;location;lat;lon;timestamp;pressure;altitude;pressure_sealevel;temperature;humidity
20017;BME280;10169;42.664;23.610;2023-06-10T00:00:47;94960.81;;;14.83;100.00
20017;BME280;10169;42.664;23.610;2023-06-10T00:02:48;94973.66;;;14.86;100.00
20017;BME280;10169;42.664;23.610;2023-06-10T00:04:48;94959.25;;;14.72;100.00
20017;BME280;10169;42.664;23.610;2023-06-10T00:06:48;94949.13;;;14.64;100.00
20017;BME280;10169;42.664;23.610;2023-06-10T00:08:50;94950.16;;;14.73;100.00
20017;BME280;10169;42.664;23.610;2023-06-10T00:10:50;94950.16;;;14.73;100.00
20017;BME280;10169;42.664;23.610;2023-06-10T00:12:50;94948.56;;;14.62;100.00
20017;BME280;10169;42.664;23.610;2023-06-10T00:14:51;94952.63;;;14.54;100.00
20017;BME280;10169;42.664;23.610;2023-06-10T00:16:53;94952.06;;;14.62;100.00
20017;BME280;10169;42.664;23.610;2023-06-10T00:18:58;94954.72;;;14.72;100.00
20017;BME280;10169;42.664;23.610;2023-06-10T00:21:01;94955.16;;;14.94;100.00
20017;BME280;10169;42.664;23.610;2023-06-10T00:23:04;94951.94;;;14.92;100.00
20017;BME280;10169;42.664;23.610;2023-06-10T00:25:06;94943.63;;;14.94;100.00
20017;BME280;10169;42.664;23.610;2023-06-10T00:27:07;94944.19;;;14.91;100.00
20017;BME280;10169;42.664;23.610;2023-06-10T00:29:07;94950.59;;;14.95;100.00
20017;BME280;10169;42.664;23.610;2023-06-10T00:31:08;94943.41;;;14.90;100.00
20017;BME280;10169;42.664;23.610;2023-06-10T00:33:08;94951.66;;;14.94;100.00
20017;BME280;10169;42.664;23.610;2023-06-10T00:35:09;94952.69;;;15.03;100.00
20017;BME280;10169;42.664;23.610;2023-06-10T00:37:09;94948.16;;;14.98;100.00
20017;BME280;10169;42.664;23.610;2023-06-10T00:39:09;94956.19;;;14.98;100.00
20017;BME280;10169;42.664;23.610;2023-06-10T00:41:10;94954.03;;;15.00;100.00
20017;BME280;10169;42.664;23.610;2023-06-10T00:43:10;94960.22;;;14.91;100.00
20017;BME280;10169;42.664;23.610;2023-06-10T00:45:11;94963.78;;;14.81;100.00
20017;BME280;10169;42.664;23.610;2023-06-10T00:47:11;94967.81;;;14.74;100.00
20017;BME280;10169;42.664;23.610;2023-06-10T00:49:12;94968.84;;;14.83;100.00
20017;BME280;10169;42.664;23.610;2023-06-10T00:51:12;94967.28;;;14.72;100.00
20017;BME280;10169;42.664;23.610;2023-06-10T00:53:13;94968.56;;;14.84;100.00
20017;BME280;10169;42.664;23.610;2023-06-10T00:55:13;94968.53;;;14.89;100.00
20017;BME280;10169;42.664;23.610;2023-06-10T00:57:14;94965.09;;;14.84;100.00
20017;BME280;10169;42.664;23.610;2023-06-10T00:59:14;94973.94;;;14.79;100.00
20017;BME280;10169;42.664;23.610;2023-06-10T01:01:15;94966.47;;;14.76;100.00
20017;BME280;10169;42.664;23.610;2023-06-10T01:03:15;94965.38;;;14.77;100.00
20017;BME280;10169;42.664;23.610;2023-06-10T01:05:17;94969.13;;;14.81;100.00
20017;BME280;10169;42.664;23.610;2023-06-10T01:11:25;94964.53;;;14.92;100.00
20017;BME280;10169;42.664;23.610;2023-06-10T01:13:28;94968.53;;;14.94;100.00
20017;BME280;10169;42.664;23.610;2023-06-10T01:15:32;94966.34;;;15.01;100.00
20017;BME280;10169;42.664;23.610;2023-06-10T01:17:33;94971.41;;;15.08;100.00
20017;BME280;10169;42.664;23.610;2023-06-10T01:19:33;94977.22;;;15.20;100.00
20017;BME280;10169;42.664;23.610;2023-06-10T01:21:33;94976.13;;;15.26;100.00
20017;BME280;10169;42.664;23.610;2023-06-10T01:23:35;94971.56;;;15.26;100.00
20017;BME280;10169;42.664;23.610;2023-06-10T01:25:37;94979.34;;;15.23;100.00
20017;BME280;10169;42.664;23.610;2023-06-10T01:27:38;94977.47;;;15.29;100.00
20017;BME280;10169;42.664;23.610;2023-06-10T01:29:46;94973.97;;;15.28;100.00
20017;BME280;10169;42.664;23.610;2023-06-10T01:34:17;94974.53;;;15.25;100.00
20017;BME280;10169;42.664;23.610;2023-06-10T01:36:18;94967.78;;;15.33;100.00
20017;BME280;10169;42.664;23.610;2023-06-10T01:38:19;94969.75;;;15.22;100.00
20017;BME280;10169;42.664;23.610;2023-06-10T01:40:20;94962.22;;;15.24;100.00
20017;BME280;10169;42.664;23.610;2023-06-10T01:42:21;94972.88;;;15.29;100.00
20017;BME280;10169;42.664;23.610;2023-06-10T01:44:22;94968.03;;;15.36;100.00
20017;BME280;10169;42.664;23.610;2023-06-10T01:46:22;94959.25;;;15.31;100.00
20017;BME280;10169;42.664;23.610;2023-06-10T01:48:22;94965.94;;;15.33;100.00
20017;BME280;10169;42.664;23.610;2023-06-10T01:50:23;94962.44;;;15.33;100.00
20017;BME280;10169;42.664;23.610;2023-06-10T01:52:23;94960.78;;;15.42;100.00
20017;BME280;10169;42.664;23.610;2023-06-10T01:54:23;94956.19;;;15.52;100.00
20017;BME280;10169;42.664;23.610;2023-06-10T01:56:24;94953.72;;;15.61;100.00
20017;BME280;10169;42.664;23.610;2023-06-10T01:58:24;94952.06;;;15.65;100.00
20017;BME280;10169;42.664;23.610;2023-06-10T02:00:25;94947.72;;;15.74;100.00
20017;BME280;10169;42.664;23.610;2023-06-10T02:02:25;94945.09;;;15.69;100.00
20017;BME280;10169;42.664;23.610;2023-06-10T02:04:25;94937.63;;;15.61;100.00
20017;BME280;10169;42.664;23.610;2023-06-10T02:06:26;94943.31;;;15.54;100.00
20017;BME280;10169;42.664;23.610;2023-06-10T02:08:26;94943.31;;;15.54;100.00
20017;BME280;10169;42.664;23.610;2023-06-10T02:10:27;94939.59;;;15.50;100.00
20017;BME280;10169;42.664;23.610;2023-06-10T02:12:27;94939.63;;;15.45;100.00
20017;BME280;10169;42.664;23.610;2023-06-10T02:14:28;94944.75;;;15.32;100.00
20017;BME280;10169;42.664;23.610;2023-06-10T02:16:28;94943.97;;;15.31;100.00
20017;BME280;10169;42.664;23.610;2023-06-10T02:18:28;94951.22;;;15.31;100.00
20017;BME280;10169;42.664;23.610;2023-06-10T02:20:29;94953.28;;;15.39;100.00
20017;BME280;10169;42.664;23.610;2023-06-10T02:22:29;94942.06;;;15.37;100.00
20017;BME280;10169;42.664;23.610;2023-06-10T02:24:29;94947.53;;;15.16;100.00
20017;BME280;10169;42.664;23.610;2023-06-10T02:26:30;94948.16;;;15.03;100.00
20017;BME280;10169;42.664;23.610;2023-06-10T02:28:30;94946.28;;;15.04;100.00
20017;BME280;10169;42.664;23.610;2023-06-10T02:30:31;94955.66;;;15.01;100.00
20017;BME280;10169;42.664;23.610;2023-06-10T02:32:31;94949.72;;;15.09;100.00
20017;BME280;10169;42.664;23.610;2023-06-10T02:34:31;94947.09;;;14.99;100.00
20017;BME280;10169;42.664;23.610;2023-06-10T02:36:31;94950.63;;;14.85;100.00
20017;BME280;10169;42.664;23.610;2023-06-10T02:38:32;94950.16;;;14.73;100.00
20017;BME280;10169;42.664;23.610;2023-06-10T02:40:32;94946.16;;;14.70;100.00
20017;BME280;10169;42.664;23.610;2023-06-10T02:42:32;94946.94;;;14.71;100.00
20017;BME280;10169;42.664;23.610;2023-06-10T02:44:33;94950.41;;;14.81;100.00
20017;BME280;10169;42.664;23.610;2023-06-10T02:46:33;94945.38;;;14.65;100.00
20017;BME280;10169;42.664;23.610;2023-06-10T02:48:40;94949.66;;;14.66;100.00
20017;BME280;10169;42.664;23.610;2023-06-10T02:50:40;94954.19;;;14.65;100.00
20017;BME280;10169;42.664;23.610;2023-06-10T02:52:41;94952.84;;;14.63;100.00
20017;BME280;10169;42.664;23.610;2023-06-10T02:54:41;94949.94;;;14.59;100.00
20017;BME280;10169;42.664;23.610;2023-06-10T02:56:41;94959.03;;;14.58;100.00
20017;BME280;10169;42.664;23.610;2023-06-10T02:58:41;94952.63;;;14.49;100.00
20017;BME280;10169;42.664;23.610;2023-06-10T03:00:42;94950.25;;;14.47;100.00
20017;BME280;10169;42.664;23.610;2023-06-10T03:02:43;94953.97;;;14.46;100.00
20017;BME280;10169;42.664;23.610;2023-06-10T03:04:45;94953.44;;;14.44;100.00
20017;BME280;10169;42.664;23.610;2023-06-10T03:06:46;94955.31;;;14.44;100.00
20017;BME280;10169;42.664;23.610;2023-06-10T03:08:47;94959.59;;;14.40;100.00
20017;BME280;10169;42.664;23.610;2023-06-10T03:10:47;94961.75;;;14.43;100.00
20017;BME280;10169;42.664;23.610;2023-06-10T03:12:47;94967.63;;;14.50;100.00
20017;BME280;10169;42.664;23.610;2023-06-10T03:14:47;94965.72;;;14.56;100.00
20017;BME280;10169;42.664;23.610;2023-06-10T03:16:48;94964.09;;;14.60;100.00
20017;BME280;10169;42.664;23.610;2023-06-10T03:18:48;94967.56;;;14.70;100.00
20017;BME280;10169;42.664;23.610;2023-06-10T03:20:49;94975.03;;;14.73;100.00
20017;BME280;10169;42.664;23.610;2023-06-10T03:22:49;94965.13;;;14.79;100.00
20017;BME280;10169;42.664;23.610;2023-06-10T03:24:49;94968.03;;;14.77;100.00
20017;BME280;10169;42.664;23.610;2023-06-10T03:26:50;94962.44;;;14.84;100.00
20017;BME280;10169;42.664;23.610;2023-06-10T03:28:50;94962.16;;;14.80;100.00
20017;BME280;10169;42.664;23.610;2023-06-10T03:30:50;94971.00;;;14.81;100.00
20017;BME280;10169;42.664;23.610;2023-06-10T03:32:51;94981.41;;;14.87;100.00
20017;BME280;10169;42.664;23.610;2023-06-10T03:34:52;94980.56;;;14.92;100.00
20017;BME280;10169;42.664;23.610;2023-06-10T03:36:57;94978.66;;;15.02;100.00
20017;BME280;10169;42.664;23.610;2023-06-10T03:38:57;94979.16;;;15.04;100.00
20017;BME280;10169;42.664;23.610;2023-06-10T03:40:57;94977.31;;;15.05;100.00
20017;BME280;10169;42.664;23.610;2023-06-10T03:42:58;94983.16;;;15.12;100.00
20017;BME280;10169;42.664;23.610;2023-06-10T03:44:58;94979.97;;;15.10;100.00
20017;BME280;10169;42.664;23.610;2023-06-10T03:46:58;94978.84;;;15.16;100.00
20017;BME280;10169;42.664;23.610;2023-06-10T03:48:59;94979.66;;;15.21;100.00
20017;BME280;10169;42.664;23.610;2023-06-10T03:51:03;94980.09;;;15.34;100.00
20017;BME280;10169;42.664;23.610;2023-06-10T03:53:03;94979.78;;;15.40;100.00
20017;BME280;10169;42.664;23.610;2023-06-10T03:55:04;94982.50;;;15.35;100.00
20017;BME280;10169;42.664;23.610;2023-06-10T03:57:05;94981.19;;;15.33;100.00
20017;BME280;10169;42.664;23.610;2023-06-10T03:59:06;94979.13;;;15.19;100.00
20017;BME280;10169;42.664;23.610;2023-06-10T04:01:06;94977.28;;;15.15;100.00
20017;BME280;10169;42.664;23.610;2023-06-10T04:03:08;94974.91;;;15.08;100.00
